Latest Weather Observations for Macquarie Island

IDT60801

Issued at 7:02 am EST Monday 20 April 2015 (issued every 30 minutes, with the page automatically refreshed every 10 minutes)

About weather observations | Map of weather stations | Latest weather observations for TAS | Other Formats
Station Details ID: 300004 Name: MACQUARIE ISLAND Lat: -54.50 Lon: 158.94 Height: 6.0 m
Data from the previous 72 hours. | See also: Recent months at Macquarie Island
Date/Time
EST
Temp
°C
App
Temp
°C
Dew
Point
Rel
Hum
%
Delta-T
°C
Wind Press
QNH
hPa
Press
MSL
hPa
Rain
since 9 am
mm
Dir
 
Spd
km/h
Gust
km/h
Spd
kts
Gust
kts
20/07:00am 6.1 -7.6 3.6 84 1.1 NW 65 80 35 43 1007.7 - 2.2
20/06:46am 6.0 -6.6 3.5 84 1.1 NNW 59 78 32 42 1007.8 - 2.2
20/06:30am 5.9 -7.2 3.2 83 1.1 NW 61 76 33 41 1008.0 - 2.2
20/06:17am 5.7 -6.6 2.9 82 1.2 NW 57 78 31 42 1008.1 - 2.2
20/06:00am 5.6 -6.8 2.8 82 1.2 NW 57 70 31 38 1008.3 1008.6 2.2
20/05:36am 5.6 -6.2 2.6 81 1.2 NW 54 72 29 39 1008.7 - 2.2
20/05:30am 5.6 -6.8 2.4 80 1.3 NW 57 72 31 39 1008.9 - 2.2
20/05:00am 5.4 -6.7 1.1 74 1.7 NW 54 69 29 37 1009.1 - 2.2
20/04:30am 5.5 -7.1 1.6 76 1.6 NW 57 76 31 41 1009.4 - 2.2
20/04:22am 5.4 -7.1 0.8 72 1.8 NW 56 76 30 41 1009.4 - 2.2
20/04:00am 5.2 -8.3 0.4 71 1.8 NW 61 72 33 39 1009.6 - 2.2
20/03:30am 5.1 -7.1 0.1 70 1.9 NW 54 65 29 35 1009.8 - 2.2
20/03:00am 5.2 -6.9 1.0 74 1.6 NW 54 63 29 34 1010.0 1010.3 2.2
20/02:30am 4.6 -6.0 0.9 77 1.4 WNW 46 63 25 34 1010.2 - 2.2
20/02:23am 4.9 -5.1 0.9 75 1.6 WNW 43 61 23 33 1010.3 - 2.2
20/02:00am 4.7 -6.1 -0.3 70 1.9 WNW 46 54 25 29 1010.2 - 2.2
20/01:30am 4.6 -5.7 0.6 75 1.5 WNW 44 56 24 30 1010.5 - 2.2
20/01:00am 4.5 -4.9 -0.3 71 1.8 WNW 39 48 21 26 1010.2 - 2.2
20/12:30am 4.4 -5.3 0.6 76 1.5 WNW 41 50 22 27 1010.2 - 2.2
20/12:00am 3.9 -4.2 0.9 81 1.2 WNW 33 41 18 22 1010.2 1010.5 2.2
 
Date/Time
EST
Temp
°C
App
Temp
°C
Dew
Point
Rel
Hum
%
Delta-T
°C
Wind Press
QNH
hPa
Press
MSL
hPa
Rain
since 9 am
mm
Dir
 
Spd
km/h
Gust
km/h
Spd
kts
Gust
kts
19/11:30pm 3.8 -4.3 1.2 83 1.0 W 33 41 18 22 1009.9 - 2.2
19/11:14pm 3.6 -4.9 1.0 83 1.0 W 35 37 19 20 1009.9 - 2.2
19/11:00pm 4.1 -4.7 1.3 82 1.1 WNW 37 44 20 24 1009.6 - 2.2
19/10:30pm 3.9 -4.0 1.1 82 1.1 WNW 32 39 17 21 1009.6 - 2.2
19/10:04pm 3.8 -4.1 1.2 83 1.0 W 32 37 17 20 1009.3 - 2.2
19/10:00pm 3.8 -5.0 1.2 83 1.0 WNW 37 50 20 27 1009.4 - 2.2
19/09:30pm 3.8 -4.0 1.4 84 0.9 WNW 32 39 17 21 1008.9 - 2.2
19/09:00pm 3.6 -4.2 1.5 86 0.8 NW 32 39 17 21 1008.6 1008.9 2.2
19/08:30pm 3.9 -2.0 1.4 84 1.0 NW 22 30 12 16 1008.4 - 2.2
19/08:00pm 3.3 -2.2 0.9 84 0.9 NW 19 24 10 13 1008.2 - 2.2
19/07:30pm 3.8 -1.7 1.7 86 0.8 NW 20 24 11 13 1007.6 - 2.2
19/07:00pm 3.4 -1.9 1.6 88 0.7 WNW 19 20 10 11 1007.3 - 2.2
19/06:30pm 3.0 -2.0 1.2 88 0.7 WNW 17 19 9 10 1007.0 - 2.2
19/06:00pm 2.8 -2.3 1.0 88 0.7 WNW 17 20 9 11 1007.0 - 2.2
19/05:30pm 2.5 -3.2 0.7 88 0.7 W 20 30 11 16 1006.7 - 2.2
19/05:03pm 3.5 -8.6 0.7 82 1.1 WNW 54 59 29 32 1006.1 - 1.2
19/05:00pm 4.2 -3.9 1.1 80 1.2 NW 33 57 18 31 1006.0 - 1.0
19/04:57pm 5.0 -2.1 1.5 78 1.4 NW 28 46 15 25 1005.9 - 1.0
19/04:30pm 4.8 -2.4 0.9 76 1.5 NW 28 33 15 18 1005.7 - 1.0
19/04:00pm 4.7 -2.4 1.2 78 1.4 WNW 28 33 15 18 1005.3 - 1.0
19/03:30pm 5.3 -1.8 1.4 76 1.5 NW 28 35 15 19 1005.1 - 1.0
19/03:00pm 5.1 -2.1 0.5 72 1.8 NW 28 33 15 18 1005.2 1005.5 1.0
19/02:30pm 5.8 -2.2 1.7 75 1.6 WNW 33 43 18 23 1005.0 - 1.0
19/02:00pm 5.2 -2.3 1.3 76 1.5 NW 30 39 16 21 1004.6 - 1.0
19/01:53pm 4.9 -1.4 1.7 80 1.3 NW 24 28 13 15 1004.6 - 1.0
19/01:30pm 4.4 -5.3 0.7 77 1.4 WNW 41 52 22 28 1004.3 - 0.6
19/01:24pm 5.6 -2.4 0.6 70 1.9 WNW 32 50 17 27 1004.2 - 0.0
19/01:00pm 6.6 -2.0 0.5 65 2.4 WNW 35 43 19 23 1004.0 - 0.0
19/12:30pm 6.3 -3.1 0.0 64 2.4 WNW 39 50 21 27 1003.7 - 0.0
19/12:00pm 6.3 -3.1 -0.2 63 2.5 W 39 50 21 27 1003.5 1003.8 0.0
19/11:30am 5.8 -5.1 -0.9 62 2.5 W 46 57 25 31 1003.0 - 0.0
19/11:00am 5.3 -5.5 -0.7 65 2.2 W 46 59 25 32 1002.6 - 0.0
19/10:30am 5.9 -5.9 0.3 67 2.2 WNW 52 63 28 34 1001.9 - 0.0
19/10:00am 4.9 -6.2 -0.3 69 2.0 W 48 65 26 35 1001.4 - 0.0
19/09:30am 5.5 -7.7 -0.3 66 2.2 WNW 59 70 32 38 1000.4 - 0.0
19/09:09am 5.5 -7.2 0.7 71 1.9 WNW 57 76 31 41 1000.2 - 0.0
19/09:00am 4.9 -8.3 -0.1 70 1.9 WNW 59 72 32 39 999.9 - 3.2
19/08:37am 4.7 -7.8 0.7 75 1.5 WNW 56 74 30 40 999.7 - 3.2
19/08:30am 5.3 -7.5 0.1 69 2.0 WNW 57 74 31 40 999.2 - 3.2
19/08:00am 4.5 -7.8 -0.3 71 1.8 WNW 54 69 29 37 998.9 - 3.2
19/07:30am 4.6 -8.1 -0.8 68 2.0 WNW 56 69 30 37 998.1 - 3.2
19/07:00am 4.5 -7.3 0.3 74 1.6 WNW 52 63 28 34 997.3 - 3.2
19/06:30am 3.7 -7.7 0.7 81 1.1 WNW 50 61 27 33 996.9 - 3.2
19/06:20am 3.2 -11.2 -0.4 77 1.3 WNW 65 83 35 45 996.8 - 3.2
19/06:18am 3.6 -12.1 -0.4 75 1.5 WNW 72 83 39 45 996.5 - 3.2
19/06:09am 4.8 -6.2 0.4 73 1.7 WNW 48 67 26 36 996.4 - 3.2
19/06:00am 4.9 -6.1 0.5 73 1.7 WNW 48 61 26 33 996.1 996.4 3.2
19/05:34am 4.6 -7.0 -0.8 68 2.0 WNW 50 69 27 37 995.6 - 3.2
19/05:30am 4.6 -7.4 -1.2 66 2.1 WNW 52 69 28 37 995.5 - 3.2
19/05:00am 4.6 -7.8 -1.0 67 2.1 WNW 54 72 29 39 994.7 - 3.2
19/04:37am 4.5 -8.3 -1.1 67 2.1 WNW 56 74 30 40 994.2 - 3.2
19/04:30am 4.5 -8.4 -0.7 69 1.9 WNW 57 70 31 38 994.0 - 3.2
19/04:00am 4.8 -8.4 -0.2 70 1.9 WNW 59 76 32 41 993.0 - 3.2
19/03:30am 4.5 -7.5 1.5 81 1.2 W 54 72 29 39 992.6 - 3.2
19/03:00am 4.8 -7.2 1.5 79 1.3 W 54 74 29 40 991.6 991.9 3.2
19/02:37am 5.3 -7.1 1.4 76 1.5 WNW 56 74 30 40 991.0 - 3.2
19/02:30am 5.4 -7.1 2.1 79 1.3 WNW 57 72 31 39 990.9 - 3.2
19/02:17am 5.4 -7.1 2.2 80 1.3 WNW 57 76 31 41 990.5 - 3.2
19/02:00am 5.8 -8.0 3.0 82 1.2 WNW 65 80 35 43 989.4 - 3.2
19/01:36am 6.4 -6.6 3.6 82 1.2 NW 61 80 33 43 988.5 - 3.2
19/01:30am 6.5 -6.5 3.3 80 1.3 NW 61 76 33 41 988.5 - 3.2
19/01:05am 6.6 -6.3 3.9 83 1.2 NW 61 80 33 43 988.5 - 3.2
19/01:00am 6.7 -7.0 3.9 82 1.2 NW 65 80 35 43 988.3 - 3.2
19/12:30am 7.2 -4.6 5.0 86 1.0 NW 56 74 30 40 987.9 - 3.2
19/12:28am 7.1 -4.6 5.1 87 0.9 NNW 56 74 30 40 987.9 - 3.2
19/12:00am 7.4 -3.8 5.7 89 0.8 NNW 54 67 29 36 988.1 988.4 3.2
 
Date/Time
EST
Temp
°C
App
Temp
°C
Dew
Point
Rel
Hum
%
Delta-T
°C
Wind Press
QNH
hPa
Press
MSL
hPa
Rain
since 9 am
mm
Dir
 
Spd
km/h
Gust
km/h
Spd
kts
Gust
kts
18/11:30pm 7.4 -3.4 6.2 92 0.5 NNW 52 59 28 32 988.1 - 3.2
18/11:00pm 7.4 -3.0 6.2 92 0.5 NNW 50 56 27 30 988.1 - 3.2
18/10:30pm 7.3 -2.7 6.2 93 0.5 NNW 48 54 26 29 988.3 - 3.2
18/10:00pm 7.1 -2.6 6.0 93 0.5 NNW 46 50 25 27 988.3 - 3.2
18/09:30pm 7.1 -2.6 6.0 93 0.5 NNW 46 52 25 28 988.7 - 3.2
18/09:00pm 7.0 -2.6 6.1 94 0.4 NNW 46 54 25 29 988.9 - 3.2
18/08:30pm 7.0 -2.3 6.1 94 0.4 NNW 44 54 24 29 989.0 - 3.0
18/08:00pm 7.0 -2.6 6.1 94 0.4 NNW 46 54 25 29 989.1 - 2.8
18/07:30pm 7.0 -2.6 6.1 94 0.4 NNW 46 52 25 28 988.8 - 2.6
18/07:00pm 7.1 -2.1 6.2 94 0.4 NNW 44 52 24 28 988.7 - 2.4
18/06:30pm 7.2 -2.4 6.3 94 0.4 NNW 46 54 25 29 988.7 - 2.2
18/06:00pm 7.3 -2.3 6.2 93 0.5 NNW 46 54 25 29 988.5 - 1.8
18/05:30pm 7.3 -1.9 6.2 93 0.5 NNW 44 50 24 27 988.4 - 1.4
18/05:00pm 7.5 -2.8 6.4 93 0.5 NNW 50 56 27 30 987.8 - 1.2
18/04:30pm 8.0 -3.6 6.8 92 0.6 NNW 57 67 31 36 987.3 - 1.2
18/04:00pm 8.4 -4.3 7.0 91 0.7 NNW 63 74 34 40 986.9 - 1.2
18/03:30pm 8.3 -4.7 7.1 92 0.6 NNW 65 76 35 41 986.9 - 1.2
18/03:00pm 8.1 -4.6 6.9 92 0.6 NNW 63 74 34 40 987.2 - 1.2
18/02:30pm 8.3 -5.1 7.1 92 0.6 NNW 67 78 36 42 987.1 - 1.0
18/02:00pm 8.4 -5.0 7.0 91 0.7 NNW 67 78 36 42 987.4 - 1.0
18/01:30pm 8.5 -5.3 7.1 91 0.7 NNW 69 83 37 45 987.3 - 1.0
18/01:00pm 8.6 -5.2 7.2 91 0.7 NNW 69 82 37 44 987.4 - 1.0
18/12:30pm 8.3 -5.1 7.1 92 0.6 NNW 67 80 36 43 987.6 - 1.0
18/12:01pm 8.3 -5.1 7.1 92 0.6 NNW 67 78 36 42 987.9 - 0.8
18/11:30am 8.3 -5.5 7.1 92 0.6 NNW 69 85 37 46 987.9 - 0.6
18/11:26am 8.4 -5.0 7.2 92 0.6 NNW 67 85 36 46 987.8 - 0.4
18/11:00am 8.5 -5.3 7.0 90 0.7 NNW 69 82 37 44 988.0 - 0.2
18/10:30am 8.6 -5.2 7.1 90 0.7 NNW 69 80 37 43 987.8 - 0.2
18/10:00am 8.6 -5.8 7.1 90 0.7 NNW 72 89 39 48 987.6 - 0.2
18/09:30am 8.4 -5.6 7.0 91 0.7 NNW 70 83 38 45 987.6 - 0.2
18/09:14am 8.4 -5.4 7.0 91 0.7 NNW 69 87 37 47 987.8 - 0.0
18/09:00am 8.6 -6.5 7.1 90 0.7 NNW 76 91 41 49 987.6 987.9 4.0
18/08:30am 8.5 -6.3 7.0 90 0.7 NNW 74 96 40 52 987.4 - 3.8
18/08:26am 8.6 -6.5 7.2 91 0.7 NNW 76 96 41 52 987.3 - 3.8
18/08:00am 8.6 -6.1 7.1 90 0.7 NNW 74 89 40 48 987.1 - 3.8
18/07:30am 8.4 -6.4 7.0 91 0.7 NNW 74 89 40 48 987.0 - 3.8
18/07:00am 8.5 -6.2 7.1 91 0.7 NNW 74 91 40 49 986.8 - 3.8
18/06:30am 8.4 -6.0 7.0 91 0.7 NNW 72 91 39 49 986.4 - 3.8
18/06:24am 8.6 -5.7 7.2 91 0.7 NNW 72 91 39 49 986.3 - 3.8
18/06:00am 8.4 -5.6 7.0 91 0.7 NNW 70 87 38 47 986.2 986.5 3.8
18/05:41am 8.4 -6.0 7.0 91 0.7 NNW 72 91 39 49 986.0 - 3.8
18/05:30am 8.5 -6.2 7.1 91 0.7 NNW 74 87 40 47 985.8 - 3.8
18/05:09am 8.4 -6.0 7.0 91 0.7 NNW 72 91 39 49 985.7 - 3.8
18/05:00am 8.6 -6.5 7.2 91 0.7 NNW 76 91 41 49 985.5 - 3.8
18/04:30am 8.4 -6.7 7.0 91 0.7 NNW 76 95 41 51 985.5 - 3.8
18/04:26am 8.5 -6.6 7.3 92 0.6 NNW 76 95 41 51 985.3 - 3.8
18/04:00am 8.3 -6.4 7.1 92 0.6 NNW 74 91 40 49 985.4 - 3.8
18/03:37am 8.2 -6.6 7.0 92 0.6 NNW 74 93 40 50 985.4 - 3.8
18/03:30am 8.3 -6.8 7.1 92 0.6 NNW 76 93 41 50 985.3 - 3.8
18/03:07am 8.2 -6.6 7.0 92 0.6 NNW 74 93 40 50 985.4 - 3.8
18/03:00am 8.4 -6.7 7.2 92 0.6 NNW 76 89 41 48 985.3 985.6 3.8
18/02:35am 8.4 -6.4 7.0 91 0.7 NNW 74 93 40 50 985.4 - 3.8
18/02:30am 8.5 -6.6 7.1 91 0.7 NNW 76 93 41 50 985.2 - 3.8
18/02:29am 8.5 -6.2 7.3 92 0.6 NNW 74 93 40 50 985.3 - 3.8
18/02:00am 8.2 -6.5 7.1 93 0.5 NNW 74 89 40 48 985.4 - 3.8
18/01:30am 8.1 -7.0 7.0 93 0.5 NNW 76 87 41 47 985.7 - 3.6
18/01:00am 8.1 -6.7 7.0 93 0.5 NNW 74 87 40 47 985.9 - 3.6
18/12:30am 8.1 -5.9 7.0 93 0.5 NNW 70 89 38 48 986.2 - 3.4
18/12:27am 8.0 -6.0 6.9 93 0.5 NNW 70 89 38 48 986.2 - 3.4
18/12:00am 7.9 -5.9 6.8 93 0.5 NNW 69 83 37 45 986.5 986.8 3.2
 
Date/Time
EST
Temp
°C
App
Temp
°C
Dew
Point
Rel
Hum
%
Delta-T
°C
Wind Press
QNH
hPa
Press
MSL
hPa
Rain
since 9 am
mm
Dir
 
Spd
km/h
Gust
km/h
Spd
kts
Gust
kts
17/11:52pm 7.9 -6.1 6.8 93 0.5 NNW 70 89 38 48 986.5 - 3.2
17/11:30pm 8.0 -6.0 6.9 93 0.5 NNW 70 82 38 44 986.5 - 3.0
17/11:00pm 8.0 -6.0 6.8 92 0.6 NNW 70 83 38 45 986.6 - 3.0
17/10:30pm 8.1 -5.7 6.9 92 0.6 NNW 69 85 37 46 986.6 - 3.0
17/10:00pm 8.1 -5.9 7.0 93 0.5 NNW 70 87 38 47 986.7 - 3.0
17/09:30pm 7.8 -5.7 6.6 92 0.6 NNW 67 82 36 44 987.0 - 2.6
17/09:00pm 8.0 -6.5 6.6 91 0.6 NNW 72 83 39 45 987.1 - 2.6
17/08:30pm 7.9 -6.5 6.7 92 0.6 NNW 72 87 39 47 987.1 - 2.6
17/08:00pm 7.6 -6.5 6.4 92 0.5 NNW 70 87 38 47 987.5 - 2.4
17/07:30pm 7.4 -7.5 6.2 92 0.5 NNW 74 95 40 51 987.6 - 2.2
17/07:19pm 7.3 -8.0 6.1 92 0.5 NNW 76 95 41 51 987.6 - 2.2
17/07:00pm 7.3 -8.1 5.9 91 0.6 NNW 76 87 41 47 987.6 - 2.0
17/06:41pm 7.3 -8.1 5.9 91 0.6 NNW 76 98 41 53 987.7 - 1.8
17/06:30pm 7.1 -8.0 5.6 90 0.7 NNW 74 91 40 49 988.0 - 1.6
17/06:06pm 6.9 -7.8 5.4 90 0.7 NNW 72 91 39 49 988.6 - 1.4
17/06:00pm 6.9 -7.8 5.4 90 0.7 NNW 72 87 39 47 988.9 - 1.4
17/05:39pm 6.7 -7.7 5.0 89 0.7 NNW 70 89 38 48 989.6 - 1.0
17/05:30pm 6.7 -7.7 4.9 88 0.8 NNW 70 83 38 45 989.8 - 0.8
17/05:00pm 6.4 -7.9 4.4 87 0.9 NNW 69 82 37 44 990.9 - 0.4
17/04:30pm 6.4 -6.9 3.9 84 1.1 NNW 63 80 34 43 991.8 - 0.2
17/04:00pm 6.5 -5.7 3.5 81 1.3 NNW 57 70 31 38 992.8 - 0.2
17/03:30pm 6.3 -6.5 2.6 77 1.5 NNW 59 70 32 38 993.6 - 0.2
17/03:00pm 6.1 -6.1 2.4 77 1.5 NNW 56 67 30 36 994.7 - 0.2
17/02:30pm 6.1 -5.8 2.2 76 1.6 NW 54 69 29 37 995.2 - 0.2
17/02:00pm 5.9 -4.5 2.2 77 1.5 NW 46 61 25 33 995.8 - 0.2
17/01:30pm 6.0 -5.6 1.5 73 1.8 NW 52 63 28 34 996.1 - 0.2
17/01:00pm 6.1 -4.0 1.6 73 1.8 NW 44 57 24 31 996.4 - 0.2
17/12:30pm 6.7 -4.0 2.4 74 1.8 WNW 48 59 26 32 997.0 - 0.2
17/12:09pm 6.6 -3.7 2.5 75 1.7 WNW 46 67 25 36 997.2 - 0.2
17/12:00pm 6.3 -4.0 2.6 77 1.5 WNW 46 56 25 30 997.4 - 0.2
17/11:38am 5.6 -6.0 1.9 77 1.5 WNW 52 70 28 38 997.2 - 0.2
17/11:30am 6.4 -4.8 2.1 74 1.7 WNW 50 57 27 31 997.2 - 0.2
17/11:01am 5.5 -5.9 0.5 70 1.9 WNW 50 72 27 39 997.3 - 0.0
17/11:00am 6.0 -4.9 1.3 72 1.9 WNW 48 59 26 32 997.3 - 0.0
17/10:30am 6.0 -5.3 1.0 70 2.0 WNW 50 67 27 36 997.1 - 0.0
17/10:00am 6.0 -6.2 0.3 67 2.2 WNW 54 65 29 35 996.8 - 0.0
17/09:30am 5.7 -5.6 1.1 72 1.8 WNW 50 65 27 35 996.3 - 0.0
17/09:14am 5.8 -6.2 1.5 74 1.7 WNW 54 72 29 39 996.2 - 0.0
17/09:00am 5.7 -5.6 0.9 71 1.9 WNW 50 65 27 35 996.3 996.6 5.0
17/08:50am 5.5 -4.9 1.8 77 1.5 W 46 65 25 35 996.1 - 5.0
17/08:30am 5.4 -6.7 1.0 73 1.7 W 54 69 29 37 995.7 - 5.0
17/08:04am 4.5 -6.8 1.4 80 1.2 W 50 69 27 37 995.1 - 5.0
17/08:00am 4.1 -7.2 1.5 83 1.0 W 50 63 27 34 995.1 - 5.0
17/07:34am 5.3 -7.4 0.7 72 1.8 W 57 76 31 41 994.4 - 4.4
17/07:30am 5.1 -8.0 0.5 72 1.8 W 59 76 32 41 994.5 - 4.4

Other Formats:

Comma delimited format used in spreadsheet applications
http://www.bom.gov.au/fwo/IDT60801/IDT60801.94998.axf

JavaScript Object Notation format (JSON) in row-major order
http://www.bom.gov.au/fwo/IDT60801/IDT60801.94998.json